Canton, Iowa
Current Conditions -  °F | °C
As of 7:55 AM on Friday 31 Oct 2014 (Local Time) from KMXO Reporting Station
Clear Clear  
Wind Chill: 18°   Ceiling: Unl
Heat Index: 30°   Visibility: 10mi
Dew Point: 21°   Wind: 17mph
Humidity: 69%   Direction: 340°NNW
Pressure: 30.33"   Gusts: NA
Location:  42.0817°N, 90.8725°W
Report Text: KMXO 311255Z AUTO 34015KT 10SM CLR M01/M06 A3033 RMK AO2
Loading
Personal Weather Stations






























Interactive Weather Map
Tropical Storm Tracking
New forecast layout! Learn more

10-Day Weather Forecast

Advertisements
Track Severe Weather on mobile